createdAt,value
2023-07-05T00:00:12.090Z,19.67
2023-07-05T00:01:13.985Z,19.55
2023-07-05T00:02:15.630Z,19.50
2023-07-05T00:03:17.316Z,19.50
2023-07-05T00:04:18.989Z,19.46
2023-07-05T00:05:21.022Z,19.44
2023-07-05T00:06:22.635Z,19.45
2023-07-05T00:07:24.213Z,19.39
2023-07-05T00:08:25.803Z,19.44
2023-07-05T00:09:27.420Z,19.42
2023-07-05T00:10:29.182Z,19.40
2023-07-05T00:11:30.822Z,19.38
2023-07-05T00:12:32.422Z,19.39
2023-07-05T00:13:34.820Z,19.38
2023-07-05T00:14:36.452Z,19.30
2023-07-05T00:15:38.081Z,19.32
2023-07-05T00:16:39.710Z,19.39
2023-07-05T00:17:41.462Z,19.42
2023-07-05T00:18:43.176Z,19.41
2023-07-05T00:19:49.708Z,19.39
2023-07-05T00:20:51.489Z,19.46
2023-07-05T00:21:53.096Z,19.49
2023-07-05T00:22:54.706Z,19.43
2023-07-05T00:23:56.359Z,19.42
2023-07-05T00:24:58.509Z,19.42
2023-07-05T00:26:00.697Z,19.45
2023-07-05T00:27:02.317Z,19.44
2023-07-05T00:28:04.063Z,19.39
2023-07-05T00:29:06.578Z,19.37
2023-07-05T00:30:08.637Z,19.41
2023-07-05T00:31:10.284Z,19.41
2023-07-05T00:32:11.930Z,19.37
2023-07-05T00:33:13.743Z,19.33
2023-07-05T00:34:15.319Z,19.26
2023-07-05T00:35:17.060Z,19.20
2023-07-05T00:36:18.676Z,19.16
2023-07-05T00:37:20.304Z,19.14
2023-07-05T00:38:23.220Z,19.09
2023-07-05T00:39:24.847Z,18.98
2023-07-05T00:40:26.431Z,18.74
2023-07-05T00:41:28.329Z,18.50
2023-07-05T00:42:29.921Z,18.30
2023-07-05T00:43:31.712Z,18.09
2023-07-05T00:44:34.405Z,18.03
2023-07-05T00:45:43.219Z,18.03
2023-07-05T00:46:49.437Z,17.91
2023-07-05T00:47:51.097Z,17.86
2023-07-05T00:48:56.141Z,17.92
2023-07-05T00:50:01.825Z,18.01
2023-07-05T00:51:14.291Z,18.14
2023-07-05T00:52:18.225Z,18.25
2023-07-05T00:53:20.058Z,18.29
2023-07-05T00:54:29.489Z,18.35
2023-07-05T00:55:31.574Z,18.43
2023-07-05T00:57:07.828Z,18.46
2023-07-05T00:58:09.880Z,18.46
2023-07-05T00:59:13.885Z,18.47
2023-07-05T01:00:19.781Z,18.42
2023-07-05T01:01:21.678Z,18.34
2023-07-05T01:02:24.141Z,18.37
2023-07-05T01:03:27.594Z,18.40
2023-07-05T01:04:31.687Z,18.42
2023-07-05T01:05:34.323Z,18.42
2023-07-05T01:06:35.944Z,18.44
2023-07-05T01:07:38.102Z,18.40
2023-07-05T01:08:40.415Z,18.38
2023-07-05T01:09:41.996Z,18.36
2023-07-05T01:10:48.970Z,18.32
2023-07-05T01:12:02.068Z,18.33
2023-07-05T01:13:10.264Z,18.37
2023-07-05T01:14:40.249Z,18.39
2023-07-05T01:16:21.510Z,18.37
2023-07-05T01:17:52.324Z,18.40
2023-07-05T01:19:29.234Z,18.42
2023-07-05T01:20:58.071Z,18.44
2023-07-05T01:22:06.424Z,18.46
2023-07-05T01:23:29.053Z,18.43
2023-07-05T01:24:48.498Z,18.37
2023-07-05T01:26:22.385Z,18.35
2023-07-05T01:27:36.192Z,18.32
2023-07-05T01:28:55.388Z,18.32
2023-07-05T01:30:12.035Z,18.35
2023-07-05T01:31:38.120Z,18.36
2023-07-05T01:32:48.398Z,18.41
2023-07-05T01:34:00.560Z,18.45
2023-07-05T01:35:17.728Z,18.45
2023-07-05T01:36:20.546Z,18.45
2023-07-05T01:37:33.222Z,18.47
2023-07-05T01:38:34.866Z,18.53
2023-07-05T01:39:37.084Z,18.53
2023-07-05T01:40:38.634Z,18.50
2023-07-05T01:41:40.450Z,18.38
2023-07-05T01:42:44.308Z,18.37
2023-07-05T01:43:46.101Z,18.35
2023-07-05T01:44:49.553Z,18.28
2023-07-05T01:46:16.333Z,18.22
2023-07-05T01:47:25.077Z,18.09
2023-07-05T01:48:37.624Z,18.03
2023-07-05T01:50:01.063Z,17.98
2023-07-05T01:51:05.602Z,17.98
2023-07-05T01:52:16.264Z,17.97
2023-07-05T01:53:59.659Z,17.93
2023-07-05T01:55:16.235Z,17.92
2023-07-05T01:56:25.773Z,17.90
2023-07-05T01:57:37.133Z,17.87
2023-07-05T01:58:43.150Z,17.85
2023-07-05T01:59:56.740Z,17.85
2023-07-05T02:01:01.555Z,17.82
2023-07-05T02:02:05.183Z,17.81
2023-07-05T02:03:14.018Z,17.79
2023-07-05T02:04:16.130Z,17.79
2023-07-05T02:05:19.286Z,17.80
2023-07-05T02:06:22.257Z,17.81
2023-07-05T02:07:28.436Z,17.82
2023-07-05T02:08:30.773Z,17.83
2023-07-05T02:09:37.000Z,17.81
2023-07-05T02:10:38.558Z,17.84
2023-07-05T02:11:40.324Z,17.84
2023-07-05T02:12:42.292Z,17.84
2023-07-05T02:13:44.048Z,17.88
2023-07-05T02:14:45.695Z,17.91
2023-07-05T02:15:47.648Z,17.93
2023-07-05T02:16:49.271Z,17.90
2023-07-05T02:17:52.228Z,17.87
2023-07-05T02:18:54.187Z,17.83
2023-07-05T02:19:55.952Z,17.77
2023-07-05T02:20:58.270Z,17.78
2023-07-05T02:22:00.165Z,17.80
2023-07-05T02:23:01.753Z,17.81
2023-07-05T02:24:03.735Z,17.83
2023-07-05T02:25:05.919Z,17.88
2023-07-05T02:26:08.301Z,17.89
2023-07-05T02:27:09.897Z,17.89
2023-07-05T02:28:11.491Z,17.83
2023-07-05T02:29:13.157Z,17.58
2023-07-05T02:30:15.003Z,17.40
2023-07-05T02:31:19.229Z,17.13
2023-07-05T02:32:21.081Z,17.11
2023-07-05T02:33:25.411Z,17.05
2023-07-05T02:34:29.313Z,16.96
2023-07-05T02:35:35.226Z,16.82
2023-07-05T02:36:36.828Z,16.75
2023-07-05T02:37:38.398Z,16.82
2023-07-05T02:38:41.393Z,16.84
2023-07-05T02:39:43.105Z,16.90
2023-07-05T02:40:50.271Z,16.82
2023-07-05T02:41:51.964Z,16.74
2023-07-05T02:42:53.613Z,16.58
2023-07-05T02:43:55.247Z,16.52
2023-07-05T02:44:56.820Z,16.60
2023-07-05T02:45:58.432Z,16.76
2023-07-05T02:47:00.405Z,16.88
2023-07-05T02:48:02.166Z,16.98
2023-07-05T02:49:04.748Z,17.12
2023-07-05T02:50:06.520Z,17.18
2023-07-05T02:51:09.327Z,17.23
2023-07-05T02:52:11.331Z,17.27
2023-07-05T02:53:12.933Z,17.31
2023-07-05T02:54:14.830Z,17.38
2023-07-05T02:55:16.597Z,17.41
2023-07-05T02:56:18.212Z,17.40
2023-07-05T02:57:19.781Z,17.38
2023-07-05T02:58:21.388Z,17.40
2023-07-05T02:59:24.424Z,17.41
2023-07-05T03:00:26.989Z,17.48
2023-07-05T03:01:28.709Z,17.49
2023-07-05T03:02:31.780Z,17.54
2023-07-05T03:03:35.083Z,17.50
2023-07-05T03:04:36.740Z,17.49
2023-07-05T03:05:38.380Z,17.52
2023-07-05T03:06:40.024Z,17.51
2023-07-05T03:07:41.603Z,17.59
2023-07-05T03:08:43.409Z,17.67
2023-07-05T03:09:45.082Z,17.69
2023-07-05T03:10:46.712Z,17.68
2023-07-05T03:11:48.363Z,17.72
2023-07-05T03:12:50.049Z,17.74
2023-07-05T03:13:52.276Z,17.76
2023-07-05T03:14:53.912Z,17.78
2023-07-05T03:15:55.853Z,17.79
2023-07-05T03:16:57.961Z,17.74
2023-07-05T03:17:59.715Z,17.73
2023-07-05T03:19:01.459Z,17.75
2023-07-05T03:20:03.212Z,17.76
2023-07-05T03:21:04.913Z,17.75
2023-07-05T03:22:06.571Z,17.72
2023-07-05T03:23:08.163Z,17.72
2023-07-05T03:24:09.774Z,17.72
2023-07-05T03:25:11.444Z,17.76
2023-07-05T03:26:13.514Z,17.80
2023-07-05T03:27:15.278Z,17.77
2023-07-05T03:28:16.884Z,17.83
2023-07-05T03:29:19.058Z,17.88
2023-07-05T03:30:20.716Z,17.91
2023-07-05T03:31:22.492Z,17.95
2023-07-05T03:32:24.093Z,18.02
2023-07-05T03:33:26.486Z,18.06
2023-07-05T03:34:28.447Z,18.08
2023-07-05T03:35:30.090Z,18.11
2023-07-05T03:36:31.730Z,18.10
2023-07-05T03:37:33.329Z,17.88
2023-07-05T03:38:35.367Z,17.77
2023-07-05T03:39:36.924Z,17.81
2023-07-05T03:40:38.521Z,17.80
2023-07-05T03:41:40.127Z,17.88
2023-07-05T03:42:42.803Z,17.92
2023-07-05T03:43:47.172Z,17.98
2023-07-05T03:44:48.891Z,17.98
2023-07-05T03:45:50.520Z,18.06
2023-07-05T03:46:52.238Z,18.12
2023-07-05T03:47:53.851Z,18.17
2023-07-05T03:48:55.569Z,18.24
2023-07-05T03:49:57.197Z,18.28
2023-07-05T03:50:59.736Z,18.33
2023-07-05T03:52:01.360Z,18.36
2023-07-05T03:53:02.990Z,18.38
2023-07-05T03:54:04.877Z,18.42
2023-07-05T03:55:07.089Z,18.47
2023-07-05T03:56:11.298Z,18.50
2023-07-05T03:57:13.023Z,18.51
2023-07-05T03:58:14.617Z,18.54
2023-07-05T03:59:16.204Z,18.54
2023-07-05T04:00:18.123Z,18.53
2023-07-05T04:01:25.277Z,18.58
2023-07-05T04:02:26.994Z,18.59
2023-07-05T04:03:28.569Z,18.60
2023-07-05T04:04:30.203Z,18.61
2023-07-05T04:05:31.809Z,18.61
2023-07-05T04:06:34.391Z,18.61
2023-07-05T04:07:35.974Z,18.56
2023-07-05T04:08:37.552Z,18.61
2023-07-05T04:09:39.306Z,18.65
2023-07-05T04:10:47.849Z,18.69
2023-07-05T04:11:49.456Z,18.66
2023-07-05T04:12:51.082Z,18.61
2023-07-05T04:13:54.877Z,18.30
2023-07-05T04:14:56.525Z,18.05
2023-07-05T04:16:03.728Z,17.87
2023-07-05T04:17:05.528Z,17.74
2023-07-05T04:18:07.160Z,17.60
2023-07-05T04:19:09.615Z,17.48
2023-07-05T04:20:11.648Z,17.48
2023-07-05T04:21:14.248Z,17.67
2023-07-05T04:22:15.873Z,17.60
2023-07-05T04:23:17.488Z,17.51
2023-07-05T04:24:19.065Z,17.33
2023-07-05T04:25:20.636Z,17.21
2023-07-05T04:26:25.200Z,17.28
2023-07-05T04:27:26.795Z,17.42
2023-07-05T04:28:29.620Z,17.62
2023-07-05T04:29:31.273Z,17.77
2023-07-05T04:30:32.853Z,17.90
2023-07-05T04:31:34.446Z,18.03
2023-07-05T04:32:36.420Z,18.17
2023-07-05T04:33:38.487Z,18.25
2023-07-05T04:34:40.078Z,18.28
2023-07-05T04:35:49.955Z,18.31
2023-07-05T04:36:51.532Z,18.31
2023-07-05T04:37:53.171Z,18.33
2023-07-05T04:38:56.094Z,18.40
2023-07-05T04:39:57.690Z,18.46
2023-07-05T04:41:00.089Z,18.49
2023-07-05T04:42:01.807Z,18.52
2023-07-05T04:43:03.479Z,18.50
2023-07-05T04:44:05.674Z,18.54
2023-07-05T04:45:07.619Z,18.62
2023-07-05T04:46:09.248Z,18.67
2023-07-05T04:47:10.879Z,18.73
2023-07-05T04:48:12.473Z,18.77
2023-07-05T04:49:14.070Z,18.79
2023-07-05T04:50:15.734Z,18.85
2023-07-05T04:51:17.814Z,18.95
2023-07-05T04:52:19.386Z,18.96
2023-07-05T04:53:21.958Z,18.93
2023-07-05T04:54:23.581Z,19.02
2023-07-05T04:55:25.162Z,18.99
2023-07-05T04:56:26.804Z,19.00
2023-07-05T04:57:32.598Z,19.05
2023-07-05T04:58:34.736Z,19.13
2023-07-05T04:59:36.337Z,19.21
2023-07-05T05:00:38.289Z,19.28
2023-07-05T05:01:40.428Z,19.30
2023-07-05T05:02:42.130Z,19.31
2023-07-05T05:03:43.795Z,19.26
2023-07-05T05:04:45.752Z,19.22
2023-07-05T05:05:52.895Z,19.21
2023-07-05T05:06:54.708Z,19.30
2023-07-05T05:07:56.292Z,19.44
2023-07-05T05:08:57.933Z,19.52
2023-07-05T05:10:01.254Z,19.62
2023-07-05T05:11:04.987Z,19.64
2023-07-05T05:12:06.791Z,19.66
2023-07-05T05:13:09.105Z,19.78
2023-07-05T05:14:11.083Z,19.86
2023-07-05T05:15:12.789Z,19.96
2023-07-05T05:16:14.427Z,20.02
2023-07-05T05:17:16.087Z,20.04
2023-07-05T05:18:18.468Z,20.07
2023-07-05T05:19:20.064Z,20.11
2023-07-05T05:20:21.652Z,20.15
2023-07-05T05:21:23.257Z,20.14
2023-07-05T05:22:24.872Z,20.20
2023-07-05T05:23:27.117Z,20.30
2023-07-05T05:24:28.788Z,20.44
2023-07-05T05:25:30.405Z,20.61
2023-07-05T05:26:32.016Z,20.73
2023-07-05T05:27:33.648Z,20.85
2023-07-05T05:28:35.253Z,21.00
2023-07-05T05:29:36.847Z,21.13
2023-07-05T05:30:39.170Z,21.27
2023-07-05T05:31:40.839Z,21.38
2023-07-05T05:32:42.962Z,21.52
2023-07-05T05:33:44.592Z,21.58
2023-07-05T05:34:46.344Z,21.67
2023-07-05T05:35:49.961Z,21.75
2023-07-05T05:36:51.581Z,21.89
2023-07-05T05:37:53.196Z,21.94
2023-07-05T05:38:54.791Z,21.87
2023-07-05T05:39:56.420Z,21.83
2023-07-05T05:41:08.561Z,21.98
2023-07-05T05:42:10.143Z,22.13
2023-07-05T05:43:11.778Z,22.15
2023-07-05T05:44:13.584Z,22.18
2023-07-05T05:45:17.021Z,22.12
2023-07-05T05:46:18.769Z,22.23
2023-07-05T05:47:20.418Z,22.21
2023-07-05T05:48:22.058Z,22.19
2023-07-05T05:49:23.692Z,22.16
2023-07-05T05:50:25.324Z,22.20
2023-07-05T05:51:27.290Z,22.32
2023-07-05T05:52:28.962Z,22.32
2023-07-05T05:53:30.559Z,22.31
2023-07-05T05:54:32.153Z,22.43
2023-07-05T05:55:33.764Z,22.54
2023-07-05T05:56:35.381Z,22.68
2023-07-05T05:57:36.960Z,22.82
2023-07-05T05:58:38.543Z,22.95
2023-07-05T05:59:40.155Z,23.04
2023-07-05T06:00:41.845Z,23.11
2023-07-05T06:01:44.763Z,23.22
2023-07-05T06:02:48.600Z,23.28
2023-07-05T06:03:50.584Z,23.39
2023-07-05T06:04:53.307Z,23.53
2023-07-05T06:05:55.808Z,23.57
2023-07-05T06:06:57.386Z,23.63
2023-07-05T06:07:59.245Z,23.72
2023-07-05T06:09:00.834Z,23.80
2023-07-05T06:10:02.468Z,23.89
2023-07-05T06:11:05.348Z,23.96
2023-07-05T06:12:07.252Z,23.98
2023-07-05T06:13:08.856Z,23.99
2023-07-05T06:14:11.010Z,24.07
2023-07-05T06:15:14.837Z,24.11
2023-07-05T06:16:16.524Z,24.18
2023-07-05T06:17:18.258Z,24.23
2023-07-05T06:18:19.908Z,24.36
2023-07-05T06:19:21.537Z,24.44
2023-07-05T06:20:23.400Z,24.48
2023-07-05T06:21:25.012Z,24.50
2023-07-05T06:22:26.620Z,24.59
2023-07-05T06:23:28.253Z,24.69
2023-07-05T06:24:29.999Z,24.81
2023-07-05T06:25:31.604Z,24.85
2023-07-05T06:26:33.182Z,24.88
2023-07-05T06:27:35.119Z,24.91
2023-07-05T06:28:36.855Z,24.86
2023-07-05T06:29:39.688Z,25.02
2023-07-05T06:30:41.609Z,25.08
2023-07-05T06:31:43.217Z,25.14
2023-07-05T06:32:44.834Z,25.23
2023-07-05T06:33:46.403Z,25.09
2023-07-05T06:34:48.003Z,25.01
2023-07-05T06:35:51.007Z,25.05
2023-07-05T06:36:52.894Z,24.95
2023-07-05T06:37:54.460Z,25.05
2023-07-05T06:38:56.093Z,25.10
2023-07-05T06:39:57.685Z,25.14
2023-07-05T06:40:59.710Z,25.12
2023-07-05T06:42:01.301Z,25.11
2023-07-05T06:43:07.246Z,25.11
2023-07-05T06:44:09.588Z,25.13
2023-07-05T06:45:11.374Z,25.06
2023-07-05T06:46:13.042Z,25.10
2023-07-05T06:47:14.725Z,25.20
2023-07-05T06:48:16.324Z,25.29
2023-07-05T06:49:17.941Z,25.27
2023-07-05T06:50:19.546Z,25.28
2023-07-05T06:51:21.154Z,25.38
2023-07-05T06:52:22.831Z,25.49
2023-07-05T06:53:46.596Z,25.63
2023-07-05T06:54:46.004Z,25.76
2023-07-05T06:55:49.165Z,25.81
2023-07-05T06:56:50.787Z,25.78
2023-07-05T06:57:52.529Z,25.78
2023-07-05T06:58:54.421Z,25.68
2023-07-05T06:59:56.046Z,25.65
2023-07-05T07:00:57.884Z,25.72
2023-07-05T07:01:59.665Z,25.78
2023-07-05T07:03:01.619Z,25.84
2023-07-05T07:04:04.671Z,25.83
2023-07-05T07:05:06.523Z,25.76
2023-07-05T07:06:08.285Z,25.67
2023-07-05T07:07:10.561Z,25.68
2023-07-05T07:08:12.171Z,25.73
2023-07-05T07:09:13.786Z,25.89
2023-07-05T07:10:15.735Z,25.84
2023-07-05T07:11:17.424Z,25.80
2023-07-05T07:12:20.275Z,25.79
2023-07-05T07:13:22.145Z,25.76
2023-07-05T07:14:23.775Z,25.86
2023-07-05T07:15:25.407Z,25.96
2023-07-05T07:16:27.463Z,26.09
2023-07-05T07:17:29.116Z,26.15
2023-07-05T07:18:31.763Z,26.21
2023-07-05T07:19:33.408Z,26.18
2023-07-05T07:20:35.117Z,26.18
2023-07-05T07:21:36.743Z,26.18
2023-07-05T07:22:38.567Z,26.24
2023-07-05T07:23:40.840Z,26.31
2023-07-05T07:24:42.536Z,26.41
2023-07-05T07:25:44.236Z,26.43
2023-07-05T07:26:46.000Z,26.52
2023-07-05T07:27:47.675Z,26.62
2023-07-05T07:28:52.677Z,26.59
2023-07-05T07:29:54.712Z,26.66
2023-07-05T07:30:57.394Z,26.72
2023-07-05T07:31:59.107Z,26.77
2023-07-05T07:33:01.072Z,26.60
2023-07-05T07:34:03.345Z,26.60
2023-07-05T07:35:05.246Z,26.54
2023-07-05T07:36:15.614Z,26.63
2023-07-05T07:37:17.267Z,26.68
2023-07-05T07:38:19.033Z,26.80
2023-07-05T07:39:20.692Z,26.83
2023-07-05T07:40:22.327Z,26.80
2023-07-05T07:41:28.561Z,26.85
2023-07-05T07:42:30.229Z,26.78
2023-07-05T07:43:31.953Z,26.73
2023-07-05T07:44:33.559Z,26.83
2023-07-05T07:45:35.658Z,26.97
2023-07-05T07:46:39.138Z,27.06
2023-07-05T07:47:41.110Z,27.18
2023-07-05T07:48:46.753Z,27.16
2023-07-05T07:49:49.848Z,27.19
2023-07-05T07:50:52.230Z,27.25
2023-07-05T07:51:54.793Z,27.32
2023-07-05T07:52:56.431Z,27.45
2023-07-05T07:54:00.048Z,27.50
2023-07-05T07:55:01.847Z,27.62
2023-07-05T07:56:17.568Z,27.74
2023-07-05T07:57:19.135Z,27.73
2023-07-05T07:58:20.883Z,27.78
2023-07-05T07:59:23.506Z,27.81
2023-07-05T08:00:26.579Z,27.90
2023-07-05T08:01:32.014Z,27.89
2023-07-05T08:02:33.939Z,27.89
2023-07-05T08:03:35.948Z,27.89
2023-07-05T08:04:45.745Z,28.06
2023-07-05T08:05:51.400Z,28.06
2023-07-05T08:06:53.039Z,28.10
2023-07-05T08:07:54.659Z,28.17
2023-07-05T08:08:56.293Z,28.16
2023-07-05T08:09:58.800Z,28.23
2023-07-05T08:11:00.473Z,28.29
2023-07-05T08:12:02.077Z,28.39
2023-07-05T08:13:03.731Z,28.50
2023-07-05T08:14:06.270Z,28.59
2023-07-05T08:15:11.437Z,28.60
2023-07-05T08:16:13.395Z,28.55
2023-07-05T08:17:14.996Z,28.64
2023-07-05T08:18:16.614Z,28.60
2023-07-05T08:19:18.514Z,28.72
2023-07-05T08:20:20.149Z,28.85
2023-07-05T08:21:22.015Z,28.78
2023-07-05T08:22:23.608Z,28.82
2023-07-05T08:23:25.250Z,28.76
2023-07-05T08:24:27.872Z,28.82
2023-07-05T08:25:29.646Z,28.81
2023-07-05T08:26:31.238Z,28.80
2023-07-05T08:27:32.831Z,28.87
2023-07-05T08:28:34.462Z,28.85
2023-07-05T08:29:36.073Z,28.72
2023-07-05T08:30:40.212Z,28.84
2023-07-05T08:31:42.385Z,28.96
2023-07-05T08:32:44.104Z,29.10
2023-07-05T08:33:45.845Z,29.15
2023-07-05T08:34:47.743Z,29.29
2023-07-05T08:35:51.015Z,29.41
2023-07-05T08:36:52.596Z,29.42
2023-07-05T08:37:54.200Z,29.45
2023-07-05T08:38:55.830Z,29.55
2023-07-05T08:39:57.480Z,29.58
2023-07-05T08:41:06.581Z,29.53
2023-07-05T08:42:30.686Z,29.47
2023-07-05T08:43:42.472Z,29.52
2023-07-05T08:44:46.171Z,29.63
2023-07-05T08:45:58.601Z,29.66
2023-07-05T08:47:09.013Z,29.75
2023-07-05T08:48:13.900Z,29.79
2023-07-05T08:49:24.152Z,29.84
2023-07-05T08:50:33.652Z,29.87
2023-07-05T08:51:37.603Z,29.85
2023-07-05T08:52:43.671Z,29.79
2023-07-05T08:53:49.940Z,29.79
2023-07-05T08:54:58.598Z,29.95
2023-07-05T08:56:30.810Z,30.12
2023-07-05T08:57:42.279Z,30.15
2023-07-05T08:58:49.817Z,30.21
2023-07-05T08:59:59.902Z,30.21
2023-07-05T09:01:07.371Z,30.05
2023-07-05T09:02:10.525Z,30.02
2023-07-05T09:03:13.696Z,30.06
2023-07-05T09:04:25.295Z,30.02
2023-07-05T09:05:30.094Z,30.03
2023-07-05T09:06:55.700Z,30.15
2023-07-05T09:08:06.763Z,30.07
2023-07-05T09:09:23.535Z,30.11
2023-07-05T09:10:34.108Z,30.19
2023-07-05T09:12:00.715Z,30.27
2023-07-05T09:13:11.766Z,30.27
2023-07-05T09:14:50.583Z,30.26
2023-07-05T09:15:56.789Z,30.25
2023-07-05T09:17:07.044Z,30.22
2023-07-05T09:18:31.559Z,30.25
2023-07-05T09:19:49.536Z,30.33
2023-07-05T09:20:54.225Z,30.33
2023-07-05T09:22:05.698Z,30.38
2023-07-05T09:23:13.664Z,30.40
2023-07-05T09:24:27.713Z,30.47
2023-07-05T09:25:48.674Z,30.42
2023-07-05T09:26:57.610Z,30.42
2023-07-05T09:28:15.158Z,30.46
2023-07-05T09:29:32.134Z,30.52
2023-07-05T09:30:35.031Z,30.60
2023-07-05T09:31:36.943Z,30.43
2023-07-05T09:32:41.444Z,30.34
2023-07-05T09:33:59.924Z,30.39
2023-07-05T09:35:02.213Z,30.39
2023-07-05T09:36:11.340Z,30.61
2023-07-05T09:37:22.842Z,30.74
2023-07-05T09:38:30.226Z,30.86
2023-07-05T09:39:49.075Z,30.92
2023-07-05T09:41:02.072Z,30.74
2023-07-05T09:42:07.088Z,30.54
2023-07-05T09:43:35.988Z,30.70
2023-07-05T09:44:37.614Z,30.76
2023-07-05T09:45:39.279Z,30.87
2023-07-05T09:46:42.053Z,31.00
2023-07-05T09:47:46.908Z,31.05
2023-07-05T09:48:48.933Z,31.04
2023-07-05T09:49:50.538Z,30.97
2023-07-05T09:50:53.035Z,30.83
2023-07-05T09:51:55.063Z,30.69
2023-07-05T09:53:00.941Z,30.79
2023-07-05T09:54:05.108Z,30.89
2023-07-05T09:55:13.202Z,30.93
2023-07-05T09:56:20.367Z,31.05
2023-07-05T09:57:26.338Z,30.92
2023-07-05T09:58:27.981Z,30.60
2023-07-05T09:59:30.101Z,30.32
2023-07-05T10:00:36.854Z,30.14
2023-07-05T10:01:42.336Z,30.12
2023-07-05T10:02:44.106Z,30.23
2023-07-05T10:03:56.795Z,30.29
2023-07-05T10:05:12.565Z,30.22
2023-07-05T10:06:18.248Z,30.17
2023-07-05T10:07:25.535Z,30.10
2023-07-05T10:08:27.322Z,30.10
2023-07-05T10:09:29.218Z,29.99
2023-07-05T10:10:38.886Z,30.12
2023-07-05T10:11:57.012Z,30.33
2023-07-05T10:13:02.827Z,30.48
2023-07-05T10:14:04.533Z,30.52
2023-07-05T10:15:25.494Z,30.66
2023-07-05T10:16:43.291Z,30.83
2023-07-05T10:17:44.968Z,30.99
2023-07-05T10:18:46.597Z,31.16
2023-07-05T10:19:52.971Z,31.15
2023-07-05T10:20:57.350Z,30.97
2023-07-05T10:22:07.088Z,30.67
2023-07-05T10:23:18.663Z,30.54
2023-07-05T10:24:21.219Z,30.42
2023-07-05T10:25:23.381Z,30.29
2023-07-05T10:26:25.062Z,30.37
2023-07-05T10:27:33.950Z,30.37
2023-07-05T10:28:36.477Z,30.42
2023-07-05T10:29:41.443Z,30.50
2023-07-05T10:30:54.676Z,30.55
2023-07-05T10:31:57.810Z,30.68
2023-07-05T10:33:22.746Z,30.78
2023-07-05T10:34:25.551Z,30.92
2023-07-05T10:35:30.067Z,31.01
2023-07-05T10:36:31.959Z,31.13
2023-07-05T10:37:36.400Z,31.20
2023-07-05T10:38:40.656Z,31.19
2023-07-05T10:39:42.269Z,31.11
2023-07-05T10:40:43.935Z,31.01
2023-07-05T10:41:45.621Z,30.92
2023-07-05T10:43:00.455Z,30.91
2023-07-05T10:44:14.188Z,30.90
2023-07-05T10:45:18.293Z,30.84
2023-07-05T10:46:23.956Z,30.80
2023-07-05T10:47:26.942Z,30.56
2023-07-05T10:48:48.120Z,30.26
2023-07-05T10:49:56.169Z,30.09
2023-07-05T10:50:57.970Z,30.09
2023-07-05T10:52:04.800Z,30.05
2023-07-05T10:53:13.443Z,29.90
2023-07-05T10:54:32.487Z,29.73
2023-07-05T10:55:46.357Z,29.80
2023-07-05T10:56:49.585Z,29.82
2023-07-05T10:58:05.064Z,29.91
2023-07-05T10:59:13.641Z,29.85
2023-07-05T11:00:33.064Z,29.91
2023-07-05T11:01:40.757Z,30.03
2023-07-05T11:02:50.080Z,30.18
2023-07-05T11:04:10.143Z,30.30
2023-07-05T11:05:22.926Z,30.44
2023-07-05T11:06:25.588Z,30.60
2023-07-05T11:07:29.326Z,30.60
2023-07-05T11:08:39.894Z,30.63
2023-07-05T11:09:42.190Z,30.45
2023-07-05T11:10:53.138Z,30.40
2023-07-05T11:12:00.036Z,30.37
2023-07-05T11:13:01.638Z,30.25
2023-07-05T11:14:03.317Z,30.15
2023-07-05T11:15:05.745Z,29.97
2023-07-05T11:16:07.516Z,29.98
2023-07-05T11:17:21.771Z,29.94
2023-07-05T11:18:25.132Z,29.96
2023-07-05T11:19:29.639Z,29.93
2023-07-05T11:20:31.169Z,29.82
2023-07-05T11:21:43.994Z,29.85
2023-07-05T11:22:46.395Z,29.95
2023-07-05T11:23:48.114Z,29.74
2023-07-05T11:24:49.736Z,29.71
2023-07-05T11:25:58.211Z,29.80
2023-07-05T11:27:01.390Z,29.98
2023-07-05T11:28:02.957Z,30.13
2023-07-05T11:29:26.131Z,30.29
2023-07-05T11:30:45.356Z,30.43
2023-07-05T11:31:46.949Z,30.56
2023-07-05T11:33:03.719Z,30.48
2023-07-05T11:34:23.572Z,30.57
2023-07-05T11:35:52.557Z,30.58
2023-07-05T11:37:14.031Z,30.63
2023-07-05T11:38:37.054Z,30.56
2023-07-05T11:39:46.497Z,30.46
2023-07-05T11:40:57.826Z,30.32
2023-07-05T11:42:19.224Z,30.27
2023-07-05T11:43:25.906Z,30.16
2023-07-05T11:44:31.197Z,30.14
2023-07-05T11:45:46.012Z,30.17
2023-07-05T11:46:47.707Z,30.13
2023-07-05T11:47:49.418Z,29.95
2023-07-05T11:48:51.104Z,29.82
2023-07-05T11:50:09.981Z,29.63
2023-07-05T11:52:44.805Z,29.45
2023-07-05T11:53:47.546Z,29.37
2023-07-05T11:55:12.862Z,29.28
2023-07-05T11:56:16.709Z,29.24
2023-07-05T11:57:18.334Z,29.15
2023-07-05T11:58:27.508Z,29.07
2023-07-05T11:59:33.906Z,29.05
2023-07-05T12:00:55.416Z,28.95
2023-07-05T12:01:58.182Z,28.81
2023-07-05T12:03:05.331Z,28.84
2023-07-05T12:04:13.513Z,28.94
2023-07-05T12:05:21.864Z,28.92
2023-07-05T12:06:31.508Z,28.92
2023-07-05T12:07:33.847Z,28.81
2023-07-05T12:08:46.804Z,28.78
2023-07-05T12:09:48.817Z,28.73
2023-07-05T12:10:55.585Z,28.63
2023-07-05T12:11:57.766Z,28.62
2023-07-05T12:12:59.552Z,28.57
2023-07-05T12:14:06.178Z,28.42
2023-07-05T12:15:11.198Z,28.32
2023-07-05T12:16:19.271Z,28.34
2023-07-05T12:17:24.589Z,28.40
2023-07-05T12:18:28.628Z,28.41
2023-07-05T12:19:32.242Z,28.45
2023-07-05T12:20:43.253Z,28.52
2023-07-05T12:21:53.772Z,28.43
2023-07-05T12:22:57.713Z,28.37
2023-07-05T12:23:59.602Z,28.40
2023-07-05T12:25:01.351Z,28.41
2023-07-05T12:26:18.570Z,28.46
2023-07-05T12:27:38.679Z,28.49
2023-07-05T12:28:43.687Z,28.56
2023-07-05T12:29:50.239Z,28.59
2023-07-05T12:31:08.974Z,28.58
2023-07-05T12:32:19.493Z,28.69
2023-07-05T12:33:28.543Z,28.74
2023-07-05T12:34:30.507Z,28.85
2023-07-05T12:35:32.122Z,29.02
2023-07-05T12:36:42.833Z,29.20
2023-07-05T12:37:44.818Z,29.31
2023-07-05T12:38:48.854Z,29.32
2023-07-05T12:39:50.482Z,29.31
2023-07-05T12:40:52.090Z,29.28
2023-07-05T12:42:00.727Z,29.51
2023-07-05T12:43:04.932Z,29.75
2023-07-05T12:44:10.894Z,29.83
2023-07-05T12:45:15.534Z,29.99
2023-07-05T12:46:22.133Z,29.96
2023-07-05T12:47:27.506Z,30.05
2023-07-05T12:48:29.157Z,30.10
2023-07-05T12:49:30.752Z,30.09
2023-07-05T12:50:32.384Z,30.23
2023-07-05T12:51:33.978Z,30.41
2023-07-05T12:52:35.566Z,30.49
2023-07-05T12:53:38.260Z,30.65
2023-07-05T12:54:39.852Z,30.78
2023-07-05T12:55:49.021Z,30.69
2023-07-05T12:56:52.918Z,30.73
2023-07-05T12:57:56.905Z,30.61
2023-07-05T12:59:04.259Z,30.64
2023-07-05T13:00:07.201Z,30.62
2023-07-05T13:01:13.196Z,30.43
2023-07-05T13:02:20.576Z,30.54
2023-07-05T13:03:22.443Z,30.68
2023-07-05T13:04:24.975Z,30.69
2023-07-05T13:05:28.666Z,30.65
2023-07-05T13:06:30.375Z,30.49
2023-07-05T13:07:32.187Z,30.43
2023-07-05T13:08:33.810Z,30.37
2023-07-05T13:09:37.696Z,30.28
2023-07-05T13:10:39.758Z,30.25
2023-07-05T13:12:02.677Z,30.27
2023-07-05T13:13:22.716Z,30.32
2023-07-05T13:14:28.005Z,30.41
2023-07-05T13:15:37.812Z,30.40
2023-07-05T13:16:42.121Z,30.46
2023-07-05T13:17:44.466Z,30.59
2023-07-05T13:19:02.112Z,30.80
2023-07-05T13:20:06.496Z,30.83
2023-07-05T13:21:15.617Z,30.79
2023-07-05T13:22:29.020Z,30.92
2023-07-05T13:23:30.664Z,30.87
2023-07-05T13:24:32.219Z,30.89
2023-07-05T13:25:46.062Z,30.85
2023-07-05T13:26:48.547Z,30.91
2023-07-05T13:27:54.254Z,30.87
2023-07-05T13:28:56.006Z,30.80
2023-07-05T13:30:14.532Z,30.66
2023-07-05T13:31:20.830Z,30.35
2023-07-05T13:32:23.408Z,30.37
2023-07-05T13:33:25.738Z,30.49
2023-07-05T13:34:28.080Z,30.43
2023-07-05T13:35:32.150Z,30.50
2023-07-05T13:36:33.825Z,30.48
2023-07-05T13:37:35.644Z,30.42
2023-07-05T13:38:37.242Z,30.42
2023-07-05T13:39:38.896Z,30.39
2023-07-05T13:40:52.381Z,30.38
2023-07-05T13:41:55.135Z,30.40
2023-07-05T13:42:57.750Z,30.46
2023-07-05T13:43:59.393Z,30.60
2023-07-05T13:45:01.048Z,30.58
2023-07-05T13:46:03.023Z,30.63
2023-07-05T13:47:05.601Z,30.50
2023-07-05T13:48:07.259Z,30.42
2023-07-05T13:49:09.438Z,30.43
2023-07-05T13:50:11.651Z,30.43
2023-07-05T13:51:28.996Z,30.43
2023-07-05T13:52:30.656Z,30.42
2023-07-05T13:53:32.286Z,30.36
2023-07-05T13:54:34.022Z,30.23
2023-07-05T13:55:35.780Z,29.96
2023-07-05T13:56:37.462Z,29.92
2023-07-05T13:57:39.065Z,29.67
2023-07-05T13:58:40.651Z,29.73